Time;durP1;ratioP1;P1;durP2;ratioP2;P2;SDS_P1;SDS_P2;PMS_P1;PMS_P2;Temp;Humidity;BMP_temperature;BMP_pressure;BME280_temperature;BME280_humidity;BME280_pressure;Samples;Min_cycle;Max_cycle;Signal;HPM_P1;HPM_P2
2023/04/30 00:00:19;;;;;;;2.70;2.50;;;10.70;99.90;;;;;;5085079;28;20290;-68
2023/04/30 00:02:46;;;;;;;5.80;2.50;;;10.70;99.90;;;;;;5085012;28;20670;-68
2023/04/30 00:05:14;;;;;;;3.53;2.23;;;10.70;99.90;;;;;;5104509;28;20234;-68
2023/04/30 00:07:43;;;;;;;3.60;2.50;;;10.70;99.90;;;;;;5105378;28;20220;-68
2023/04/30 00:10:10;;;;;;;3.67;2.30;;;10.70;99.90;;;;;;5105052;28;20210;-69
2023/04/30 00:12:37;;;;;;;3.57;2.30;;;10.70;99.90;;;;;;5104969;28;20270;-69
2023/04/30 00:15:05;;;;;;;2.97;2.20;;;10.70;99.90;;;;;;5104561;28;20217;-68
2023/04/30 00:17:32;;;;;;;4.57;2.60;;;10.70;99.90;;;;;;5104615;28;20226;-68
2023/04/30 00:19:59;;;;;;;2.80;2.07;;;10.60;99.90;;;;;;5105256;28;20949;-68
2023/04/30 00:22:28;;;;;;;3.10;2.17;;;10.60;99.90;;;;;;5106412;28;20210;-68
2023/04/30 00:24:55;;;;;;;4.37;1.83;;;10.60;99.90;;;;;;5108546;28;20210;-68
2023/04/30 00:27:21;;;;;;;3.07;2.00;;;10.60;99.90;;;;;;5108670;28;20316;-68
2023/04/30 00:29:48;;;;;;;3.30;2.00;;;10.60;99.90;;;;;;5104666;28;20902;-68
2023/04/30 00:32:15;;;;;;;3.97;1.93;;;10.60;99.90;;;;;;5087999;28;20206;-68
2023/04/30 00:34:42;;;;;;;3.10;1.90;;;10.60;99.90;;;;;;5088841;28;20720;-68
2023/04/30 00:37:09;;;;;;;3.80;1.70;;;10.60;99.90;;;;;;5088325;28;20317;-68
2023/04/30 00:39:37;;;;;;;4.43;1.80;;;10.50;99.90;;;;;;5088426;28;20283;-68
2023/04/30 00:42:05;;;;;;;2.00;1.80;;;10.50;99.90;;;;;;5088093;28;20214;-69
2023/04/30 00:44:32;;;;;;;3.80;1.93;;;10.50;99.90;;;;;;5088449;28;20313;-70
2023/04/30 00:46:58;;;;;;;3.20;1.70;;;10.50;99.90;;;;;;5103486;28;20210;-69
2023/04/30 00:49:26;;;;;;;4.43;1.90;;;10.40;99.90;;;;;;5092323;28;20298;-69
2023/04/30 00:51:54;;;;;;;3.93;1.63;;;10.40;99.90;;;;;;5087953;28;20676;-69
2023/04/30 00:54:21;;;;;;;2.43;1.70;;;10.40;99.90;;;;;;5087979;28;20261;-69
2023/04/30 00:56:49;;;;;;;2.77;1.80;;;10.40;99.90;;;;;;5087479;28;20274;-69
2023/04/30 00:59:17;;;;;;;4.30;1.70;;;10.30;99.90;;;;;;5099465;27;20292;-69
2023/04/30 01:01:44;;;;;;;3.33;1.53;;;10.30;99.90;;;;;;5103139;28;20209;-69
2023/04/30 01:04:11;;;;;;;3.47;1.80;;;10.20;99.90;;;;;;5087790;28;20206;-69
2023/04/30 01:06:38;;;;;;;3.53;1.67;;;10.10;99.90;;;;;;5087970;28;20244;-69
2023/04/30 01:09:06;;;;;;;3.03;1.80;;;10.10;99.90;;;;;;5087976;28;20297;-69
2023/04/30 01:11:47;;;;;;;3.10;1.53;;;10.10;99.90;;;;;;5087623;28;20650;-70
2023/04/30 01:14:27;;;;;;;4.40;1.83;;;10.00;99.90;;;;;;5096081;28;20590;-70
2023/04/30 01:17:04;;;;;;;4.93;1.70;;;10.00;99.90;;;;;;5095919;28;20221;-70
2023/04/30 01:19:38;;;;;;;4.83;1.97;;;9.90;99.90;;;;;;5087662;28;20204;-69
2023/04/30 01:22:05;;;;;;;2.63;1.77;;;9.90;99.90;;;;;;5087316;28;20201;-69
2023/04/30 01:25:06;;;;;;;5.00;2.07;;;9.80;99.90;;;;;;5087679;28;20643;-69
2023/04/30 01:28:01;;;;;;;6.23;2.20;;;9.70;99.90;;;;;;5087391;28;20226;-69
2023/04/30 01:30:30;;;;;;;3.90;1.83;;;9.60;99.90;;;;;;5107485;27;20210;-68
2023/04/30 01:32:57;;;;;;;2.13;1.80;;;9.60;99.90;;;;;;5107518;28;20232;-69
2023/04/30 01:35:52;;;;;;;2.67;1.70;;;9.50;99.90;;;;;;5107752;28;20206;-69
2023/04/30 01:38:33;;;;;;;2.67;1.60;;;9.50;99.90;;;;;;5090399;28;20317;-69
2023/04/30 01:41:10;;;;;;;6.93;1.80;;;9.50;99.90;;;;;;5086820;28;20195;-68
2023/04/30 01:43:54;;;;;;;4.60;2.17;;;9.40;99.90;;;;;;5087125;28;20288;-69
2023/04/30 01:46:27;;;;;;;3.70;1.70;;;9.40;99.90;;;;;;5094058;28;20234;-69
2023/04/30 01:49:03;;;;;;;3.30;1.67;;;9.40;99.90;;;;;;5095416;28;20191;-69
2023/04/30 01:51:37;;;;;;;3.33;2.37;;;9.40;99.90;;;;;;5087111;28;20211;-69
2023/04/30 01:54:15;;;;;;;4.63;2.00;;;9.30;99.90;;;;;;5086690;28;20564;-68
2023/04/30 01:56:49;;;;;;;4.57;2.00;;;9.20;99.90;;;;;;5095092;28;20312;-68
2023/04/30 01:59:18;;;;;;;4.10;2.40;;;9.20;99.90;;;;;;5106547;28;20214;-68
2023/04/30 02:01:44;;;;;;;5.83;1.97;;;9.10;99.90;;;;;;5096202;28;20856;-68
2023/04/30 02:04:12;;;;;;;5.40;1.80;;;9.00;99.90;;;;;;5086668;28;20215;-68
2023/04/30 02:06:40;;;;;;;6.00;2.10;;;9.00;99.90;;;;;;5086746;28;20912;-68
2023/04/30 02:09:07;;;;;;;3.80;1.70;;;9.00;99.90;;;;;;5086746;28;20207;-68
2023/04/30 02:11:34;;;;;;;3.40;1.80;;;9.00;99.90;;;;;;5100075;28;20740;-68
2023/04/30 02:14:00;;;;;;;5.57;2.03;;;8.90;99.90;;;;;;5106921;28;20661;-67
2023/04/30 02:16:29;;;;;;;2.63;1.73;;;8.90;99.90;;;;;;5106951;28;20202;-67
2023/04/30 02:18:56;;;;;;;2.73;1.83;;;8.80;99.90;;;;;;5107302;28;20210;-68
2023/04/30 02:21:23;;;;;;;2.60;2.03;;;8.80;99.90;;;;;;5106673;28;20293;-68
2023/04/30 02:23:50;;;;;;;5.50;2.37;;;8.80;99.90;;;;;;5107134;27;20233;-67
2023/04/30 02:26:17;;;;;;;2.93;1.60;;;8.80;99.90;;;;;;5106469;28;20234;-68
2023/04/30 02:28:44;;;;;;;3.53;2.00;;;8.80;99.90;;;;;;5105701;28;20206;-68
2023/04/30 02:31:11;;;;;;;2.93;2.00;;;8.80;99.90;;;;;;5086451;28;20217;-68
2023/04/30 02:33:39;;;;;;;1.90;1.80;;;8.70;99.90;;;;;;5086529;28;20350;-68
2023/04/30 02:36:06;;;;;;;1.93;1.63;;;8.70;99.90;;;;;;5086641;28;20207;-68
2023/04/30 02:38:33;;;;;;;4.30;2.07;;;8.70;99.90;;;;;;5086340;28;20299;-67
2023/04/30 02:41:01;;;;;;;4.47;2.03;;;8.70;99.90;;;;;;5085856;28;20213;-68
2023/04/30 02:43:28;;;;;;;4.17;2.03;;;8.60;99.90;;;;;;5086214;28;20241;-68
2023/04/30 02:45:55;;;;;;;2.87;1.77;;;8.60;99.90;;;;;;5085161;28;20206;-67
2023/04/30 02:48:23;;;;;;;1.87;1.77;;;8.50;99.90;;;;;;5085434;28;20206;-68
2023/04/30 02:50:51;;;;;;;2.70;2.00;;;8.50;99.90;;;;;;5086496;28;20206;-69
2023/04/30 02:53:18;;;;;;;6.23;2.10;;;8.40;99.90;;;;;;5097114;28;20293;-68
2023/04/30 02:55:45;;;;;;;4.73;1.77;;;8.30;99.90;;;;;;5106278;28;20202;-68
2023/04/30 02:58:12;;;;;;;4.80;1.93;;;8.20;99.90;;;;;;5106486;28;20226;-68
2023/04/30 03:00:39;;;;;;;3.73;2.17;;;8.20;99.90;;;;;;5105961;28;20309;-68
2023/04/30 03:03:06;;;;;;;2.37;1.90;;;8.20;99.90;;;;;;5106145;28;20586;-68
2023/04/30 03:05:32;;;;;;;3.10;2.07;;;8.20;99.90;;;;;;5105909;28;20206;-68
2023/04/30 03:08:01;;;;;;;5.03;2.10;;;8.10;99.90;;;;;;5106225;28;20270;-68
2023/04/30 03:10:28;;;;;;;3.57;2.20;;;8.10;99.90;;;;;;5105739;28;20727;-68
2023/04/30 03:12:54;;;;;;;3.17;1.80;;;8.10;99.90;;;;;;5105468;28;20238;-69
2023/04/30 03:15:21;;;;;;;4.33;2.07;;;8.10;99.90;;;;;;5105867;28;20612;-68
2023/04/30 03:17:48;;;;;;;2.30;2.10;;;8.10;99.90;;;;;;5105745;28;20234;-68
2023/04/30 03:20:15;;;;;;;3.37;1.90;;;8.10;99.90;;;;;;5105492;28;20971;-68
2023/04/30 03:22:42;;;;;;;3.50;2.23;;;8.20;99.90;;;;;;5105733;28;20727;-68
2023/04/30 03:25:10;;;;;;;2.90;2.20;;;8.00;99.90;;;;;;5105215;28;20212;-68
2023/04/30 03:27:37;;;;;;;4.40;2.10;;;8.00;99.90;;;;;;5105862;28;20317;-68
2023/04/30 03:30:06;;;;;;;3.83;2.40;;;8.00;99.90;;;;;;5095166;28;20218;-68
2023/04/30 03:32:33;;;;;;;3.50;2.07;;;8.00;99.90;;;;;;5085474;28;20214;-68
2023/04/30 03:35:00;;;;;;;5.03;2.10;;;7.90;99.90;;;;;;5092657;28;20672;-68
2023/04/30 03:37:27;;;;;;;4.57;2.10;;;7.90;99.90;;;;;;5105964;28;20340;-67
2023/04/30 03:39:54;;;;;;;4.00;2.07;;;7.90;99.90;;;;;;5105916;28;20731;-68
2023/04/30 03:42:22;;;;;;;3.77;2.17;;;7.90;99.90;;;;;;5106071;28;20275;-67
2023/04/30 03:44:49;;;;;;;2.57;2.37;;;7.80;99.90;;;;;;5106059;28;20686;-68
2023/04/30 03:47:16;;;;;;;2.70;2.20;;;7.80;99.90;;;;;;5105525;28;20300;-69
2023/04/30 03:49:43;;;;;;;3.73;2.13;;;7.60;99.90;;;;;;5100386;28;20232;-68
2023/04/30 03:52:10;;;;;;;4.03;2.10;;;7.70;99.90;;;;;;5105549;28;20290;-68
2023/04/30 03:54:37;;;;;;;5.47;2.40;;;7.60;99.90;;;;;;5105651;28;20297;-68
2023/04/30 03:57:04;;;;;;;4.43;2.70;;;7.40;99.90;;;;;;5107682;28;20225;-68
2023/04/30 03:59:32;;;;;;;3.23;2.50;;;7.40;99.90;;;;;;5109824;27;20792;-68
2023/04/30 04:02:00;;;;;;;3.90;2.20;;;7.40;99.90;;;;;;5109502;28;20301;-68
2023/04/30 04:04:28;;;;;;;3.73;2.10;;;7.50;99.90;;;;;;5090988;28;20225;-68
2023/04/30 04:06:55;;;;;;;4.27;1.93;;;7.50;99.90;;;;;;5089313;28;20202;-68
2023/04/30 04:09:22;;;;;;;3.43;2.30;;;7.60;99.90;;;;;;5089043;28;20215;-68
2023/04/30 04:11:49;;;;;;;3.33;2.30;;;7.70;99.90;;;;;;5088591;28;20241;-68
2023/04/30 04:14:16;;;;;;;4.43;2.20;;;7.80;99.90;;;;;;5089239;28;20234;-69
2023/04/30 04:16:44;;;;;;;3.20;2.17;;;7.70;99.90;;;;;;5092368;28;20236;-69
2023/04/30 04:19:12;;;;;;;2.83;1.70;;;7.70;99.90;;;;;;5109193;28;20329;-68
2023/04/30 04:21:39;;;;;;;6.17;2.20;;;7.70;99.90;;;;;;5109630;28;20213;-68
2023/04/30 04:24:07;;;;;;;4.70;1.90;;;7.70;99.90;;;;;;5109702;28;20233;-68
2023/04/30 04:26:35;;;;;;;2.20;2.00;;;7.70;99.90;;;;;;5096081;27;20226;-68
2023/04/30 04:29:02;;;;;;;4.80;2.30;;;7.60;99.90;;;;;;5093070;27;20224;-68
2023/04/30 04:31:30;;;;;;;5.70;2.20;;;7.70;99.90;;;;;;5109165;28;20957;-67
2023/04/30 04:34:00;;;;;;;5.40;2.17;;;7.60;99.90;;;;;;5109204;28;20202;-67
2023/04/30 04:36:29;;;;;;;4.90;2.37;;;7.60;99.90;;;;;;5109179;28;20201;-68
2023/04/30 04:39:00;;;;;;;3.93;2.07;;;7.40;99.90;;;;;;5109009;27;20226;-68
2023/04/30 04:41:27;;;;;;;2.40;2.00;;;7.30;99.90;;;;;;5108956;28;20199;-68
2023/04/30 04:43:55;;;;;;;3.57;2.00;;;7.20;99.90;;;;;;5109126;28;20239;-67
2023/04/30 04:46:22;;;;;;;3.93;2.17;;;7.10;99.90;;;;;;5092263;28;20210;-67
2023/04/30 04:48:49;;;;;;;9.83;2.37;;;7.20;99.90;;;;;;5088584;28;20205;-68
2023/04/30 04:51:17;;;;;;;4.13;2.30;;;7.20;99.90;;;;;;5088403;28;20203;-68
2023/04/30 04:53:44;;;;;;;4.23;2.13;;;7.00;99.90;;;;;;5088318;28;20674;-68
2023/04/30 04:56:11;;;;;;;4.80;2.37;;;7.10;99.90;;;;;;5087689;28;20304;-67
2023/04/30 04:58:38;;;;;;;3.20;2.37;;;7.00;99.90;;;;;;5089859;28;20318;-68
2023/04/30 05:01:06;;;;;;;4.80;2.23;;;7.00;99.90;;;;;;5108634;28;20215;-68
2023/04/30 05:03:35;;;;;;;3.37;2.00;;;7.00;99.90;;;;;;5109212;28;20217;-68
2023/04/30 05:06:02;;;;;;;5.63;2.23;;;7.10;99.90;;;;;;5108840;28;20261;-68
2023/04/30 05:08:31;;;;;;;2.43;1.93;;;7.00;99.90;;;;;;5107944;28;20791;-68
2023/04/30 05:10:58;;;;;;;6.00;2.40;;;7.10;99.90;;;;;;5108560;28;20638;-68
2023/04/30 05:13:25;;;;;;;4.80;2.47;;;7.30;99.90;;;;;;5108045;28;20281;-68
2023/04/30 05:15:53;;;;;;;6.37;2.37;;;7.10;99.90;;;;;;5108755;28;20210;-68
2023/04/30 05:18:20;;;;;;;5.17;2.40;;;7.00;99.90;;;;;;5096949;28;20226;-67
2023/04/30 05:20:47;;;;;;;4.63;2.43;;;7.00;99.90;;;;;;5099204;28;20226;-67
2023/04/30 05:23:14;;;;;;;4.83;2.30;;;7.00;99.90;;;;;;5096646;28;20225;-67
2023/04/30 05:25:42;;;;;;;4.10;2.50;;;7.10;99.90;;;;;;5099133;28;20233;-67
2023/04/30 05:28:09;;;;;;;4.63;2.70;;;7.20;99.90;;;;;;5101950;28;20199;-67
2023/04/30 05:30:36;;;;;;;6.90;2.73;;;7.20;99.90;;;;;;5097625;28;20261;-68
2023/04/30 05:33:03;;;;;;;4.63;2.50;;;7.30;99.90;;;;;;5095958;28;20212;-68
2023/04/30 05:35:30;;;;;;;5.73;2.30;;;7.40;99.90;;;;;;5087215;28;20286;-68
2023/04/30 05:37:57;;;;;;;8.13;2.87;;;7.40;99.90;;;;;;5097791;28;20225;-67
2023/04/30 05:40:24;;;;;;;8.83;2.70;;;7.40;99.90;;;;;;5095435;28;20227;-68
2023/04/30 05:42:52;;;;;;;4.23;2.57;;;7.50;99.90;;;;;;5097309;28;20206;-68
2023/04/30 05:45:19;;;;;;;3.97;2.40;;;7.60;99.90;;;;;;5097547;28;20286;-68
2023/04/30 05:47:46;;;;;;;5.93;2.60;;;7.70;99.90;;;;;;5095288;28;20278;-68
2023/04/30 05:50:13;;;;;;;5.93;2.50;;;7.80;99.90;;;;;;5097952;28;20202;-67
2023/04/30 05:52:40;;;;;;;4.00;2.27;;;7.80;99.90;;;;;;5100340;28;20196;-68
2023/04/30 05:55:08;;;;;;;6.63;2.87;;;7.90;99.90;;;;;;5095406;28;20235;-67
2023/04/30 05:57:35;;;;;;;5.27;2.77;;;8.00;99.90;;;;;;5096674;28;20289;-68
2023/04/30 06:00:05;;;;;;;3.77;2.40;;;8.00;99.90;;;;;;5101653;28;20234;-68
2023/04/30 06:02:32;;;;;;;5.87;2.57;;;8.10;99.90;;;;;;5101596;28;20199;-67
2023/04/30 06:05:00;;;;;;;6.30;2.50;;;8.20;99.90;;;;;;5105202;28;20206;-68
2023/04/30 06:07:27;;;;;;;6.73;3.23;;;8.20;99.90;;;;;;5095026;28;20206;-68
2023/04/30 06:09:54;;;;;;;4.33;2.50;;;8.30;99.90;;;;;;5094158;28;20298;-68
2023/04/30 06:12:22;;;;;;;7.80;2.80;;;8.30;99.90;;;;;;5092977;28;20249;-68
2023/04/30 06:14:49;;;;;;;6.47;2.50;;;8.30;99.90;;;;;;5097702;28;20195;-67
2023/04/30 06:17:17;;;;;;;7.70;2.60;;;8.40;99.90;;;;;;5097395;28;20224;-68
2023/04/30 06:19:44;;;;;;;3.60;2.70;;;8.40;99.90;;;;;;5103769;28;20234;-68
2023/04/30 06:22:11;;;;;;;8.90;2.63;;;8.50;99.90;;;;;;5106705;27;20306;-68
2023/04/30 06:24:38;;;;;;;5.83;2.30;;;8.50;99.90;;;;;;5106696;28;20214;-68
2023/04/30 06:27:04;;;;;;;5.17;2.80;;;8.60;99.90;;;;;;5106399;28;20309;-68
2023/04/30 06:29:31;;;;;;;6.90;2.50;;;8.50;99.90;;;;;;5098846;28;20305;-67
2023/04/30 06:31:58;;;;;;;4.20;2.33;;;8.50;99.90;;;;;;5086107;28;20245;-68
2023/04/30 06:34:26;;;;;;;4.83;2.50;;;8.40;99.90;;;;;;5086279;28;20206;-69
2023/04/30 06:36:53;;;;;;;4.67;2.57;;;8.40;99.90;;;;;;5091436;28;20194;-69
2023/04/30 06:39:20;;;;;;;6.07;2.57;;;8.40;99.90;;;;;;5094908;28;20855;-69
2023/04/30 06:41:47;;;;;;;8.37;2.47;;;8.30;99.90;;;;;;5106470;27;20297;-69
2023/04/30 06:44:15;;;;;;;8.03;2.97;;;8.30;99.90;;;;;;5100977;28;20294;-69
2023/04/30 06:46:45;;;;;;;8.37;3.03;;;8.30;99.90;;;;;;5084704;28;20255;-69
2023/04/30 06:49:11;;;;;;;4.43;2.90;;;8.30;99.90;;;;;;5098588;28;20245;-69
2023/04/30 06:51:42;;;;;;;3.97;2.27;;;8.40;99.90;;;;;;5105060;28;20310;-69
2023/04/30 06:54:09;;;;;;;5.90;2.80;;;8.40;99.90;;;;;;5101340;27;20230;-69
2023/04/30 06:56:36;;;;;;;9.87;2.60;;;8.50;99.90;;;;;;5099009;27;20203;-69
2023/04/30 06:59:03;;;;;;;9.23;2.77;;;8.50;99.90;;;;;;5093641;27;20229;-69
2023/04/30 07:01:30;;;;;;;4.63;2.90;;;8.50;99.90;;;;;;5089814;27;20210;-69
2023/04/30 07:03:57;;;;;;;7.63;2.80;;;8.60;99.90;;;;;;5086561;28;20289;-69
2023/04/30 07:06:24;;;;;;;4.30;2.93;;;8.60;99.90;;;;;;5094468;27;20205;-69
2023/04/30 07:08:52;;;;;;;5.50;2.53;;;8.60;99.90;;;;;;5104228;27;20655;-69
2023/04/30 07:11:19;;;;;;;4.47;2.90;;;8.70;99.90;;;;;;5103616;28;20321;-69
2023/04/30 07:13:46;;;;;;;2.87;2.50;;;8.70;99.90;;;;;;5104884;28;20286;-69
2023/04/30 07:16:15;;;;;;;3.87;2.47;;;8.50;99.90;;;;;;5084495;28;20305;-69
2023/04/30 07:18:42;;;;;;;5.50;2.67;;;8.50;99.90;;;;;;5084303;28;20906;-69
2023/04/30 07:21:09;;;;;;;4.80;2.50;;;8.50;99.90;;;;;;5118066;27;20241;-69
2023/04/30 07:23:36;;;;;;;3.67;2.47;;;8.60;99.90;;;;;;5102674;27;20257;-69
2023/04/30 07:26:05;;;;;;;5.77;2.47;;;8.70;99.90;;;;;;5104090;28;20236;-69
2023/04/30 07:28:35;;;;;;;4.20;2.50;;;8.60;99.90;;;;;;5103654;28;20684;-69
2023/04/30 07:31:02;;;;;;;6.00;2.43;;;8.60;99.90;;;;;;5083075;28;20202;-69
2023/04/30 07:33:29;;;;;;;4.23;2.47;;;8.60;99.90;;;;;;5083125;28;20207;-69
2023/04/30 07:35:57;;;;;;;7.60;3.23;;;8.70;99.90;;;;;;5083861;28;20207;-69
2023/04/30 07:38:24;;;;;;;5.53;2.50;;;8.80;99.90;;;;;;5083652;28;20746;-69
2023/04/30 07:40:51;;;;;;;8.57;2.67;;;8.80;99.90;;;;;;5083725;28;20211;-69
2023/04/30 07:43:19;;;;;;;4.87;2.47;;;8.80;99.90;;;;;;5083575;28;20317;-69
2023/04/30 07:45:48;;;;;;;5.47;3.00;;;8.70;99.90;;;;;;5083577;28;20213;-69
2023/04/30 07:48:15;;;;;;;3.97;2.50;;;8.70;99.90;;;;;;5091488;28;20259;-69
2023/04/30 07:50:42;;;;;;;8.53;2.50;;;8.80;99.90;;;;;;5103640;28;20208;-70
2023/04/30 07:53:09;;;;;;;7.40;2.87;;;8.90;99.90;;;;;;5103906;28;20206;-69
2023/04/30 07:55:36;;;;;;;4.03;2.40;;;9.00;99.90;;;;;;5104019;28;20364;-69
2023/04/30 07:58:03;;;;;;;4.03;2.57;;;9.10;99.90;;;;;;5103904;28;20209;-69
2023/04/30 08:00:32;;;;;;;4.67;2.33;;;9.20;99.90;;;;;;5120524;28;20236;-69
2023/04/30 08:03:00;;;;;;;5.77;2.53;;;9.20;99.90;;;;;;5107532;27;20685;-69
2023/04/30 08:05:28;;;;;;;4.50;2.70;;;9.30;99.90;;;;;;5097410;28;20203;-70
2023/04/30 08:07:55;;;;;;;4.60;2.43;;;9.40;99.90;;;;;;5090245;28;20736;-70
2023/04/30 08:10:21;;;;;;;5.73;2.73;;;9.40;99.90;;;;;;5085903;28;20234;-70
2023/04/30 08:12:48;;;;;;;6.50;2.63;;;9.40;99.90;;;;;;5103434;28;20242;-69
2023/04/30 08:15:15;;;;;;;5.40;2.20;;;9.40;99.90;;;;;;5103555;28;20297;-69
2023/04/30 08:17:43;;;;;;;11.37;3.30;;;9.50;99.90;;;;;;5085452;28;20305;-69
2023/04/30 08:20:11;;;;;;;5.33;2.23;;;9.50;99.90;;;;;;5099835;28;20262;-69
2023/04/30 08:22:38;;;;;;;6.10;3.13;;;9.60;99.90;;;;;;5082663;28;20299;-69
2023/04/30 08:25:06;;;;;;;5.60;2.37;;;9.60;99.90;;;;;;5082468;28;20227;-69
2023/04/30 08:27:33;;;;;;;4.60;2.60;;;9.70;99.90;;;;;;5096369;28;20198;-69
2023/04/30 08:30:00;;;;;;;4.67;2.53;;;9.80;99.90;;;;;;5102027;28;20202;-68
2023/04/30 08:32:27;;;;;;;3.10;2.13;;;9.70;99.90;;;;;;5090263;28;20213;-69
2023/04/30 08:34:56;;;;;;;5.07;2.20;;;9.80;99.90;;;;;;5084037;28;20218;-69
2023/04/30 08:37:23;;;;;;;2.63;2.30;;;9.90;99.90;;;;;;5084076;28;20211;-69
2023/04/30 08:39:50;;;;;;;5.87;2.23;;;10.00;99.90;;;;;;5083581;28;20288;-69
2023/04/30 08:42:18;;;;;;;3.33;2.27;;;10.10;99.90;;;;;;5084159;28;20248;-69
2023/04/30 08:44:47;;;;;;;5.07;2.27;;;10.20;99.90;;;;;;5087097;28;20297;-69
2023/04/30 08:47:14;;;;;;;2.37;1.90;;;10.30;99.90;;;;;;5086972;28;20942;-69
2023/04/30 08:49:41;;;;;;;2.63;1.83;;;10.30;99.90;;;;;;5088192;28;20244;-69
2023/04/30 08:52:10;;;;;;;2.17;1.50;;;10.50;99.90;;;;;;5087974;28;20206;-69
2023/04/30 08:54:37;;;;;;;2.33;2.07;;;10.60;99.90;;;;;;5088124;28;20301;-69
2023/04/30 08:57:05;;;;;;;5.77;1.90;;;10.60;99.90;;;;;;5087582;28;20574;-70
2023/04/30 08:59:32;;;;;;;2.03;1.67;;;10.60;99.90;;;;;;5104216;27;20291;-69
2023/04/30 09:02:01;;;;;;;2.33;2.10;;;10.70;99.90;;;;;;5108499;28;20728;-69
2023/04/30 09:04:28;;;;;;;4.37;2.00;;;10.70;99.90;;;;;;5108110;28;20202;-69
2023/04/30 09:06:58;;;;;;;2.33;2.03;;;10.70;99.90;;;;;;5102937;28;20290;-70
2023/04/30 09:09:30;;;;;;;3.33;2.10;;;10.80;99.90;;;;;;5096077;27;20719;-69
2023/04/30 09:12:13;;;;;;;11.63;2.60;;;10.80;99.90;;;;;;5109279;27;20647;-69
2023/04/30 09:14:40;;;;;;;4.37;2.03;;;10.80;99.90;;;;;;5094979;28;20226;-69
2023/04/30 09:17:08;;;;;;;4.80;2.57;;;10.90;99.90;;;;;;5100782;27;20299;-69
2023/04/30 09:19:36;;;;;;;5.87;2.53;;;10.90;99.90;;;;;;5099285;28;20853;-69
2023/04/30 09:22:23;;;;;;;4.27;2.40;;;11.00;99.90;;;;;;5094468;27;20732;-69
2023/04/30 09:24:52;;;;;;;3.20;1.70;;;11.00;99.90;;;;;;5094618;28;20312;-69
2023/04/30 09:27:20;;;;;;;3.87;1.80;;;11.10;99.90;;;;;;5105224;27;20566;-72
2023/04/30 09:29:47;;;;;;;2.27;2.00;;;11.10;99.90;;;;;;5093524;27;20206;-69
2023/04/30 09:32:14;;;;;;;2.73;1.90;;;11.10;99.90;;;;;;5093653;28;20285;-70
2023/04/30 09:34:42;;;;;;;3.63;2.27;;;11.20;99.90;;;;;;5107191;28;20228;-70
2023/04/30 09:37:09;;;;;;;5.47;1.97;;;11.20;99.90;;;;;;5087607;28;20327;-69
2023/04/30 09:39:48;;;;;;;9.90;2.83;;;11.20;99.90;;;;;;5104341;28;20237;-68
2023/04/30 09:42:17;;;;;;;2.03;1.80;;;11.20;99.90;;;;;;5087166;28;20203;-68
2023/04/30 09:44:44;;;;;;;3.53;2.17;;;11.30;99.90;;;;;;5087554;28;20222;-69
2023/04/30 09:47:13;;;;;;;2.40;1.90;;;11.30;99.90;;;;;;5097745;28;20260;-69
2023/04/30 09:49:43;;;;;;;4.07;1.80;;;11.30;99.90;;;;;;5088156;28;20219;-69
2023/04/30 09:52:11;;;;;;;4.33;2.00;;;11.40;99.90;;;;;;5100839;28;20293;-69
2023/04/30 09:54:39;;;;;;;4.33;2.27;;;11.40;99.90;;;;;;5090540;28;20207;-69
2023/04/30 09:57:10;;;;;;;2.97;1.77;;;11.50;99.90;;;;;;5105050;28;20233;-69
2023/04/30 09:59:39;;;;;;;2.97;2.10;;;11.60;99.90;;;;;;5106230;28;20226;-69
2023/04/30 10:02:07;;;;;;;2.97;1.73;;;11.80;99.90;;;;;;5106091;28;20210;-69
2023/04/30 10:04:36;;;;;;;2.70;2.00;;;11.90;99.90;;;;;;5092305;28;20217;-69
2023/04/30 10:07:06;;;;;;;2.60;2.17;;;12.00;99.90;;;;;;5100311;28;20268;-69
2023/04/30 10:09:40;;;;;;;3.83;1.93;;;12.10;99.90;;;;;;5094761;28;20238;-70
2023/04/30 10:12:15;;;;;;;3.87;2.43;;;12.10;99.90;;;;;;5110218;27;20248;-69
2023/04/30 10:14:51;;;;;;;2.87;2.03;;;12.10;99.90;;;;;;5096507;28;20645;-70
2023/04/30 10:17:19;;;;;;;3.10;2.10;;;12.20;99.90;;;;;;5100438;28;20194;-69
2023/04/30 10:19:49;;;;;;;3.93;2.10;;;12.30;99.90;;;;;;5105222;28;20397;-69
2023/04/30 10:22:17;;;;;;;4.50;2.23;;;12.40;99.90;;;;;;5087389;28;20669;-69
2023/04/30 10:24:45;;;;;;;1.80;1.70;;;12.50;99.90;;;;;;5085251;28;20254;-70
2023/04/30 10:27:13;;;;;;;3.40;1.70;;;12.50;99.90;;;;;;5084796;28;20211;-69
2023/04/30 10:29:40;;;;;;;4.70;2.43;;;12.60;99.90;;;;;;5084936;28;20227;-69
2023/04/30 10:32:11;;;;;;;2.50;2.07;;;12.70;99.40;;;;;;5085180;28;20203;-69
2023/04/30 10:34:45;;;;;;;4.53;2.10;;;12.70;99.90;;;;;;5084457;28;20207;-69
2023/04/30 10:37:21;;;;;;;3.23;2.07;;;12.70;99.40;;;;;;5094211;28;20202;-69
2023/04/30 10:39:48;;;;;;;3.93;2.07;;;12.70;98.90;;;;;;5104894;28;20228;-69
2023/04/30 10:42:15;;;;;;;2.97;1.90;;;12.60;98.20;;;;;;5104957;28;20300;-69
2023/04/30 10:44:42;;;;;;;4.23;2.33;;;12.60;99.30;;;;;;5104977;28;20292;-70
2023/04/30 10:47:11;;;;;;;2.00;1.90;;;12.70;99.80;;;;;;5104723;28;20627;-69
2023/04/30 10:49:39;;;;;;;15.03;2.63;;;12.90;99.90;;;;;;5087131;28;20699;-69
2023/04/30 10:52:06;;;;;;;2.60;1.97;;;13.00;99.90;;;;;;5086390;28;20238;-69
2023/04/30 10:54:36;;;;;;;2.83;2.00;;;13.20;99.90;;;;;;5084749;28;20293;-69
2023/04/30 10:57:14;;;;;;;4.73;2.47;;;13.30;99.90;;;;;;5084109;28;20229;-69
2023/04/30 10:59:45;;;;;;;4.97;2.47;;;13.40;98.90;;;;;;5084864;28;20322;-69
2023/04/30 11:02:16;;;;;;;3.77;2.33;;;13.30;98.00;;;;;;5084107;28;20210;-69
2023/04/30 11:05:08;;;;;;;3.10;2.20;;;13.40;99.10;;;;;;5084502;28;20210;-69
2023/04/30 11:07:36;;;;;;;4.60;1.97;;;13.50;98.70;;;;;;5099423;27;20289;-69
2023/04/30 11:10:03;;;;;;;2.87;1.97;;;13.60;98.80;;;;;;5104414;28;20217;-70
2023/04/30 11:12:30;;;;;;;2.53;2.30;;;13.80;98.30;;;;;;5093977;28;20654;-70
2023/04/30 11:15:01;;;;;;;2.33;2.00;;;13.90;96.90;;;;;;5084233;28;20213;-70
2023/04/30 11:17:32;;;;;;;3.97;2.20;;;14.00;97.90;;;;;;5083928;28;20206;-70
2023/04/30 11:20:00;;;;;;;2.83;2.27;;;14.10;98.40;;;;;;5098997;28;20226;-69
2023/04/30 11:22:34;;;;;;;2.57;2.00;;;14.30;97.70;;;;;;5104343;28;20695;-69
2023/04/30 11:25:04;;;;;;;2.50;2.30;;;14.40;97.40;;;;;;5103581;28;20987;-69
2023/04/30 11:27:32;;;;;;;9.87;2.60;;;14.40;97.20;;;;;;5103144;28;20205;-69
2023/04/30 11:30:00;;;;;;;5.73;2.57;;;14.60;97.60;;;;;;5117544;28;20223;-69
2023/04/30 11:32:34;;;;;;;5.73;2.47;;;14.60;97.50;;;;;;5124122;27;20209;-69
2023/04/30 11:35:03;;;;;;;3.33;2.17;;;14.70;97.40;;;;;;5105298;28;20204;-69
2023/04/30 11:37:34;;;;;;;4.40;2.40;;;14.80;97.50;;;;;;5105917;28;20594;-70
2023/04/30 11:40:03;;;;;;;2.43;2.17;;;14.90;97.80;;;;;;5095952;28;20329;-70
2023/04/30 11:42:33;;;;;;;3.97;1.93;;;15.00;97.20;;;;;;5085450;28;20218;-70
2023/04/30 11:45:08;;;;;;;6.83;2.90;;;15.10;97.40;;;;;;5085773;28;20263;-70
2023/04/30 11:47:44;;;;;;;5.43;2.50;;;15.30;97.80;;;;;;5094633;28;20209;-70
2023/04/30 11:50:14;;;;;;;2.00;1.90;;;15.40;96.70;;;;;;5085374;28;20208;-70
2023/04/30 11:52:42;;;;;;;4.10;2.33;;;15.40;96.60;;;;;;5085063;28;20301;-70
2023/04/30 11:55:14;;;;;;;2.83;2.30;;;15.40;96.30;;;;;;5085020;28;20206;-70
2023/04/30 11:57:41;;;;;;;4.80;2.50;;;15.50;96.30;;;;;;5085601;28;20248;-70
2023/04/30 12:00:12;;;;;;;3.03;2.40;;;15.50;96.00;;;;;;5098494;28;20334;-70
2023/04/30 12:02:39;;;;;;;2.23;2.00;;;15.70;96.40;;;;;;5088301;28;20214;-70
2023/04/30 12:05:13;;;;;;;7.27;2.57;;;15.70;95.90;;;;;;5105543;28;20603;-70
2023/04/30 12:07:45;;;;;;;2.40;2.00;;;15.90;96.40;;;;;;5105750;28;20220;-70
2023/04/30 12:10:12;;;;;;;2.73;2.10;;;16.10;95.90;;;;;;5105296;28;20191;-70
2023/04/30 12:12:39;;;;;;;3.80;2.57;;;16.10;94.10;;;;;;5105555;28;20356;-70
2023/04/30 12:15:16;;;;;;;5.13;2.30;;;16.30;94.60;;;;;;5100549;28;20946;-70
2023/04/30 12:17:44;;;;;;;2.63;2.30;;;16.40;94.80;;;;;;5086736;28;20205;-70
2023/04/30 12:20:14;;;;;;;3.87;2.40;;;16.50;94.40;;;;;;5092938;28;20318;-70
2023/04/30 12:22:42;;;;;;;2.93;2.47;;;16.40;93.40;;;;;;5089217;28;20210;-70
2023/04/30 12:25:12;;;;;;;3.47;2.20;;;16.30;93.20;;;;;;5088890;28;20295;-70
2023/04/30 12:27:40;;;;;;;5.13;2.50;;;16.20;93.20;;;;;;5088736;28;20198;-70
2023/04/30 12:30:08;;;;;;;2.50;2.00;;;16.30;93.80;;;;;;5101857;28;20301;-71
2023/04/30 12:32:42;;;;;;;3.67;2.13;;;16.30;93.00;;;;;;5108932;28;20206;-70
2023/04/30 12:35:15;;;;;;;6.37;2.53;;;16.50;92.30;;;;;;5108912;28;20197;-70
2023/04/30 12:37:44;;;;;;;6.23;2.37;;;16.50;92.20;;;;;;5109201;28;20201;-70
2023/04/30 12:40:12;;;;;;;3.03;2.70;;;16.40;92.20;;;;;;5092798;28;20638;-70
2023/04/30 12:42:39;;;;;;;6.20;2.50;;;16.50;92.50;;;;;;5088987;28;20213;-69
2023/04/30 12:45:07;;;;;;;5.40;2.40;;;16.60;94.00;;;;;;5088877;28;20322;-69
2023/04/30 12:47:40;;;;;;;3.57;2.80;;;16.90;94.10;;;;;;5088432;28;20238;-70
2023/04/30 12:50:10;;;;;;;4.83;2.23;;;17.10;93.60;;;;;;5088469;28;20191;-70
2023/04/30 12:52:39;;;;;;;3.30;2.30;;;17.30;93.70;;;;;;5088494;28;20294;-70
2023/04/30 12:55:17;;;;;;;5.23;2.90;;;17.40;93.40;;;;;;5088414;28;20220;-70
2023/04/30 12:58:05;;;;;;;3.63;2.10;;;17.30;91.50;;;;;;5096955;28;20210;-70
2023/04/30 13:00:44;;;;;;;2.77;2.20;;;17.30;92.20;;;;;;5108313;27;20221;-70